Time;durP1;ratioP1;P1;durP2;ratioP2;P2;SDS_P1;SDS_P2;PMS_P1;PMS_P2;Temp;Humidity;BMP_temperature;BMP_pressure;BME280_temperature;BME280_humidity;BME280_pressure;Samples;Min_cycle;Max_cycle;Signal;HPM_P1;HPM_P2
2021/03/20 00:00:20;;;;;;;5.45;3.55;;;-1.50;1.00;;;;;;4914340;29;20945;-77
2021/03/20 00:02:46;;;;;;;8.80;3.70;;;-1.40;1.00;;;;;;4914213;28;21211;-76
2021/03/20 00:05:14;;;;;;;4.45;3.50;;;-1.40;1.00;;;;;;4926817;29;20218;-77
2021/03/20 00:07:41;;;;;;;8.38;3.08;;;-1.30;1.00;;;;;;4918980;28;20322;-78
2021/03/20 00:10:13;;;;;;;8.73;3.47;;;-1.20;1.00;;;;;;4924465;29;20973;-77
2021/03/20 00:12:39;;;;;;;4.68;3.35;;;-1.20;1.00;;;;;;4913521;29;20356;-77
2021/03/20 00:15:10;;;;;;;6.40;2.90;;;-1.10;1.00;;;;;;4912326;29;20230;-77
2021/03/20 00:17:36;;;;;;;2.75;2.55;;;-1.10;1.00;;;;;;4915617;29;20285;-76
2021/03/20 00:20:05;;;;;;;5.15;3.00;;;-1.00;1.00;;;;;;4928493;28;20252;-76
2021/03/20 00:22:31;;;;;;;5.93;3.80;;;-1.00;1.00;;;;;;4917728;29;21116;-77
2021/03/20 00:24:58;;;;;;;4.97;3.33;;;-0.90;1.00;;;;;;4911707;28;21142;-76
2021/03/20 00:27:25;;;;;;;5.00;3.58;;;-0.90;1.00;;;;;;4917970;29;20257;-78
2021/03/20 00:29:51;;;;;;;7.10;3.10;;;-0.90;1.00;;;;;;4931691;28;20309;-78
2021/03/20 00:32:17;;;;;;;4.30;3.97;;;-0.90;1.00;;;;;;4921095;28;21196;-78
2021/03/20 00:34:43;;;;;;;3.95;2.45;;;-0.90;1.00;;;;;;4939004;29;20238;-78
2021/03/20 00:37:12;;;;;;;4.35;2.53;;;-0.90;1.00;;;;;;4926051;28;20942;-77
2021/03/20 00:39:38;;;;;;;3.05;2.50;;;-0.90;1.00;;;;;;4917241;29;20233;-78
2021/03/20 00:42:05;;;;;;;5.63;2.40;;;-0.90;1.00;;;;;;4897418;28;20226;-76
2021/03/20 00:44:32;;;;;;;7.03;3.33;;;-1.00;1.00;;;;;;4901120;29;20254;-77
2021/03/20 00:46:58;;;;;;;4.50;2.78;;;-0.90;1.00;;;;;;4916270;29;20234;-77
2021/03/20 00:49:24;;;;;;;4.05;2.75;;;-1.00;1.00;;;;;;4892619;29;20230;-76
2021/03/20 00:51:50;;;;;;;6.63;2.65;;;-1.10;1.00;;;;;;4919665;29;20241;-77
2021/03/20 00:54:17;;;;;;;6.65;3.00;;;-1.00;1.00;;;;;;4902436;28;20230;-77
2021/03/20 00:56:46;;;;;;;5.18;3.38;;;-1.00;1.00;;;;;;4918487;29;20242;-77
2021/03/20 00:59:12;;;;;;;4.18;3.15;;;-1.00;1.00;;;;;;4909178;29;21213;-77
2021/03/20 01:01:40;;;;;;;5.07;4.00;;;-1.00;1.00;;;;;;4913968;28;20252;-78
2021/03/20 01:04:06;;;;;;;5.47;3.88;;;-1.00;1.00;;;;;;4904821;29;20228;-77
2021/03/20 01:06:32;;;;;;;4.28;3.30;;;-0.90;1.00;;;;;;4917005;28;20237;-77
2021/03/20 01:09:00;;;;;;;3.65;2.60;;;-0.90;1.00;;;;;;4912653;29;20754;-77
2021/03/20 01:11:28;;;;;;;4.25;2.33;;;-0.80;1.00;;;;;;4920083;29;20241;-77
2021/03/20 01:13:56;;;;;;;3.50;2.80;;;-0.80;1.00;;;;;;4906462;28;20226;-77
2021/03/20 01:16:22;;;;;;;2.30;1.92;;;-0.80;1.00;;;;;;4914306;29;20240;-77
2021/03/20 01:18:50;;;;;;;3.53;2.67;;;-0.80;1.00;;;;;;4905272;28;20226;-77
2021/03/20 01:21:16;;;;;;;3.50;2.75;;;-0.70;1.00;;;;;;4916137;29;20300;-77
2021/03/20 01:23:43;;;;;;;5.55;3.25;;;-0.70;1.00;;;;;;4907420;29;20337;-78
2021/03/20 01:26:10;;;;;;;5.15;3.60;;;-0.70;1.00;;;;;;4915371;28;21049;-78
2021/03/20 01:28:38;;;;;;;8.52;3.95;;;-0.70;1.00;;;;;;4921447;29;20222;-78
2021/03/20 01:31:04;;;;;;;3.97;2.63;;;-0.70;1.00;;;;;;4901533;28;20235;-76
2021/03/20 01:33:31;;;;;;;4.10;2.33;;;-0.60;1.00;;;;;;4902349;29;20229;-76
2021/03/20 01:35:58;;;;;;;6.65;3.60;;;-0.60;1.00;;;;;;4903985;28;20226;-77
2021/03/20 01:38:25;;;;;;;6.93;2.55;;;-0.70;1.00;;;;;;4915321;29;20328;-77
2021/03/20 01:40:54;;;;;;;4.72;2.60;;;-0.70;1.00;;;;;;4900774;29;20222;-77
2021/03/20 01:43:24;;;;;;;4.03;2.65;;;-0.70;1.00;;;;;;4894603;29;20313;-78
2021/03/20 01:45:51;;;;;;;3.80;2.35;;;-0.60;1.00;;;;;;4904556;29;20236;-77
2021/03/20 01:48:22;;;;;;;3.45;2.13;;;-0.60;1.00;;;;;;4912515;28;20256;-78
2021/03/20 01:50:55;;;;;;;5.03;3.05;;;-0.60;1.00;;;;;;4904568;28;20256;-77
2021/03/20 01:53:35;;;;;;;3.05;2.40;;;-0.60;1.00;;;;;;4913719;28;20226;-77
2021/03/20 01:56:04;;;;;;;4.68;2.63;;;-0.60;1.00;;;;;;4910263;29;21210;-76
2021/03/20 01:58:31;;;;;;;5.75;3.92;;;-0.60;1.00;;;;;;4913968;29;20229;-76
2021/03/20 02:01:05;;;;;;;7.45;3.00;;;-0.50;1.00;;;;;;4897659;28;20226;-78
2021/03/20 02:03:31;;;;;;;4.95;2.72;;;-0.50;1.00;;;;;;4910966;28;20309;-76
2021/03/20 02:06:00;;;;;;;5.63;2.38;;;-0.50;1.00;;;;;;4904532;28;20753;-77
2021/03/20 02:08:26;;;;;;;2.70;2.50;;;-0.50;1.00;;;;;;4917497;29;20221;-78
2021/03/20 02:11:00;;;;;;;8.93;2.78;;;-0.50;1.00;;;;;;4907687;29;21326;-78
2021/03/20 02:13:32;;;;;;;4.13;2.60;;;-0.50;1.00;;;;;;4923069;29;20234;-76
2021/03/20 02:16:04;;;;;;;5.28;2.28;;;-0.50;1.00;;;;;;4923130;28;20316;-77
2021/03/20 02:18:45;;;;;;;3.13;2.22;;;-0.50;1.00;;;;;;4920294;28;20719;-78
2021/03/20 02:21:21;;;;;;;3.05;2.10;;;-0.50;1.00;;;;;;4907596;29;22289;-78
2021/03/20 02:24:30;;;;;;;3.08;2.25;;;-0.50;1.00;;;;;;4932819;28;20729;-76
2021/03/20 02:27:45;;;;;;;2.72;1.77;;;-0.50;1.00;;;;;;4904066;28;20225;-77
2021/03/20 02:30:40;;;;;;;2.30;1.85;;;-0.50;1.00;;;;;;4915825;28;20230;-77
2021/03/20 02:33:23;;;;;;;4.15;2.20;;;-0.40;1.00;;;;;;4909198;29;20239;-77
2021/03/20 02:35:57;;;;;;;7.40;2.60;;;-0.40;1.00;;;;;;4913406;28;21064;-77
2021/03/20 02:38:31;;;;;;;4.90;4.43;;;-0.40;1.00;;;;;;4911841;28;20230;-76
2021/03/20 02:41:03;;;;;;;3.70;2.53;;;-0.40;1.00;;;;;;4921938;28;20225;-77
2021/03/20 02:43:37;;;;;;;4.07;2.00;;;-0.50;1.00;;;;;;4897568;29;20237;-77
2021/03/20 02:46:09;;;;;;;4.40;2.33;;;-0.50;1.00;;;;;;4901252;29;20273;-77
2021/03/20 02:48:45;;;;;;;3.53;2.10;;;-0.40;1.00;;;;;;4912175;28;20246;-77
2021/03/20 02:51:18;;;;;;;4.57;4.13;;;-0.40;1.00;;;;;;4925190;29;20226;-77
2021/03/20 02:53:51;;;;;;;2.25;1.83;;;-0.40;1.00;;;;;;4915707;28;20571;-75
2021/03/20 02:56:24;;;;;;;5.30;2.30;;;-0.40;1.00;;;;;;4928889;29;20245;-77
2021/03/20 02:58:55;;;;;;;3.55;2.50;;;-0.40;1.00;;;;;;4895291;29;20233;-77
2021/03/20 03:01:25;;;;;;;2.67;2.47;;;-0.30;1.00;;;;;;4924537;28;20234;-77
2021/03/20 03:03:53;;;;;;;2.80;2.50;;;-0.30;1.00;;;;;;4912943;29;21104;-77
2021/03/20 03:06:26;;;;;;;5.25;2.90;;;-0.30;1.00;;;;;;4906808;29;20242;-77
2021/03/20 03:08:57;;;;;;;4.15;2.40;;;-0.30;1.00;;;;;;4907144;29;20258;-77
2021/03/20 03:11:29;;;;;;;4.07;2.00;;;-0.30;1.00;;;;;;4916187;28;20241;-77
2021/03/20 03:14:00;;;;;;;2.72;2.28;;;-0.30;1.00;;;;;;4909988;28;20293;-78
2021/03/20 03:16:32;;;;;;;3.75;2.28;;;-0.40;1.00;;;;;;4922814;28;20226;-77
2021/03/20 03:19:03;;;;;;;5.07;2.38;;;-0.30;1.00;;;;;;4908855;29;20749;-77
2021/03/20 03:21:33;;;;;;;5.25;1.90;;;-0.30;1.00;;;;;;4918908;29;20317;-77
2021/03/20 03:23:59;;;;;;;3.53;2.25;;;-0.30;1.00;;;;;;4912632;28;20253;-77
2021/03/20 03:26:31;;;;;;;7.88;2.72;;;-0.30;1.00;;;;;;4903883;29;20240;-77
2021/03/20 03:29:04;;;;;;;5.10;2.47;;;-0.30;1.00;;;;;;4912158;28;20260;-77
2021/03/20 03:31:34;;;;;;;7.35;2.05;;;-0.40;1.00;;;;;;4923042;29;21247;-77
2021/03/20 03:34:04;;;;;;;3.80;2.00;;;-0.30;1.00;;;;;;4896454;29;20248;-77
2021/03/20 03:36:37;;;;;;;8.20;3.20;;;-0.30;1.00;;;;;;4920643;29;20256;-77
2021/03/20 03:39:12;;;;;;;3.00;2.17;;;-0.30;1.00;;;;;;4904912;29;20266;-77
2021/03/20 03:41:41;;;;;;;4.72;2.90;;;-0.30;1.00;;;;;;4916356;28;20232;-76
2021/03/20 03:44:08;;;;;;;2.90;1.98;;;-0.30;1.00;;;;;;4905720;29;20232;-77
2021/03/20 03:46:36;;;;;;;7.53;2.15;;;-0.30;1.00;;;;;;4918284;28;20258;-77
2021/03/20 03:49:07;;;;;;;8.38;2.65;;;-0.30;1.00;;;;;;4918478;29;24116;-78
2021/03/20 03:51:33;;;;;;;4.55;2.47;;;-0.30;1.00;;;;;;4911077;28;20234;-77
2021/03/20 03:54:00;;;;;;;5.90;3.22;;;-0.30;1.00;;;;;;4921553;29;20242;-77
2021/03/20 03:56:43;;;;;;;3.83;3.40;;;-0.30;1.00;;;;;;4921814;29;20239;-76
2021/03/20 03:59:15;;;;;;;9.52;2.63;;;-0.30;1.00;;;;;;4923256;28;20300;-76
2021/03/20 04:01:50;;;;;;;3.50;2.88;;;-0.30;1.00;;;;;;4907610;28;20234;-76
2021/03/20 04:04:38;;;;;;;3.38;2.47;;;-0.30;1.00;;;;;;4918374;28;20213;-76
2021/03/20 04:07:26;;;;;;;8.95;3.47;;;-0.30;1.00;;;;;;4912118;29;20234;-77
2021/03/20 04:10:05;;;;;;;3.95;2.75;;;-0.30;1.00;;;;;;4924922;28;20295;-76
2021/03/20 04:12:37;;;;;;;5.72;3.22;;;-0.30;1.00;;;;;;4919477;29;20395;-76
2021/03/20 04:15:09;;;;;;;4.50;2.40;;;-0.30;1.00;;;;;;4914654;28;20277;-75
2021/03/20 04:17:44;;;;;;;3.45;3.00;;;-0.30;1.00;;;;;;4906085;28;21111;-76
2021/03/20 04:20:21;;;;;;;6.70;1.92;;;-0.40;1.00;;;;;;4917381;29;21279;-77
2021/03/20 04:22:55;;;;;;;2.70;2.50;;;-0.50;1.00;;;;;;4907549;28;20213;-77
2021/03/20 04:25:28;;;;;;;3.55;2.40;;;-0.50;1.00;;;;;;4919468;29;21002;-76
2021/03/20 04:28:06;;;;;;;4.43;2.50;;;-0.50;1.00;;;;;;4902280;28;20249;-77
2021/03/20 04:30:36;;;;;;;7.63;2.83;;;-0.50;1.00;;;;;;4916708;29;20229;-77
2021/03/20 04:33:06;;;;;;;4.60;2.53;;;-0.50;1.00;;;;;;4908591;28;20269;-77
2021/03/20 04:35:36;;;;;;;2.60;2.13;;;-0.50;1.00;;;;;;4919439;29;20238;-77
2021/03/20 04:38:03;;;;;;;5.45;3.40;;;-0.50;1.00;;;;;;4889289;29;20226;-77
2021/03/20 04:40:39;;;;;;;6.00;2.45;;;-0.50;1.00;;;;;;4902833;29;20377;-76
2021/03/20 04:43:06;;;;;;;4.18;2.78;;;-0.50;1.00;;;;;;4909834;29;20977;-77
2021/03/20 04:45:35;;;;;;;6.88;2.88;;;-0.50;1.00;;;;;;4923192;28;20254;-76
2021/03/20 04:48:11;;;;;;;7.63;3.70;;;-0.40;1.00;;;;;;4912074;28;20225;-76
2021/03/20 04:50:42;;;;;;;8.15;3.47;;;-0.40;1.00;;;;;;4919558;28;20316;-77
2021/03/20 04:53:08;;;;;;;6.65;3.38;;;-0.40;1.00;;;;;;4920924;28;20348;-77
2021/03/20 04:55:34;;;;;;;4.05;2.40;;;-0.30;1.00;;;;;;4940054;28;20237;-76
2021/03/20 04:58:07;;;;;;;6.25;2.88;;;-0.30;1.00;;;;;;4925918;28;20322;-76
2021/03/20 05:00:38;;;;;;;6.53;2.70;;;-0.30;1.00;;;;;;4933076;29;20230;-75
2021/03/20 05:03:12;;;;;;;3.58;2.65;;;-0.30;1.00;;;;;;4920278;28;20230;-77
2021/03/20 05:05:45;;;;;;;5.00;2.45;;;-0.30;1.00;;;;;;4943954;28;20224;-77
2021/03/20 05:08:15;;;;;;;9.98;5.18;;;-0.30;1.00;;;;;;4933097;28;20851;-76
2021/03/20 05:10:46;;;;;;;5.53;2.70;;;-0.30;1.00;;;;;;4933935;29;20274;-77
2021/03/20 05:13:24;;;;;;;3.70;3.35;;;-0.20;1.00;;;;;;4904159;29;20278;-77
2021/03/20 05:15:56;;;;;;;4.90;2.80;;;-0.20;1.00;;;;;;4926585;28;20229;-77
2021/03/20 05:18:23;;;;;;;3.60;2.00;;;-0.20;1.00;;;;;;4905043;29;20234;-76
2021/03/20 05:20:49;;;;;;;5.40;2.58;;;-0.20;1.00;;;;;;4931276;28;20218;-77
2021/03/20 05:23:16;;;;;;;6.50;4.22;;;-0.20;1.00;;;;;;4920424;29;20221;-77
2021/03/20 05:25:42;;;;;;;5.95;4.25;;;-0.20;1.00;;;;;;4927074;28;21217;-76
2021/03/20 05:28:08;;;;;;;5.85;3.10;;;-0.10;1.00;;;;;;4915035;28;20257;-76
2021/03/20 05:30:35;;;;;;;3.20;2.10;;;-0.10;1.00;;;;;;4909388;29;22965;-76
2021/03/20 05:33:01;;;;;;;5.60;5.05;;;-0.10;1.00;;;;;;4926697;28;20232;-76
2021/03/20 05:35:28;;;;;;;3.65;3.03;;;-0.10;1.00;;;;;;4921865;28;20309;-75
2021/03/20 05:37:55;;;;;;;3.13;2.78;;;-0.10;1.00;;;;;;4917181;29;20229;-75
2021/03/20 05:40:26;;;;;;;3.58;2.78;;;0.00;1.00;;;;;;4917928;29;20294;-76
2021/03/20 05:43:14;;;;;;;5.88;2.60;;;0.00;1.00;;;;;;4926913;29;20229;-77
2021/03/20 05:45:48;;;;;;;4.05;2.00;;;0.00;1.00;;;;;;4913926;28;20339;-77
2021/03/20 05:48:17;;;;;;;4.28;3.00;;;0.10;1.00;;;;;;4922664;29;20308;-78
2021/03/20 05:51:01;;;;;;;11.68;3.90;;;0.20;1.00;;;;;;4897343;29;20221;-78
2021/03/20 05:53:40;;;;;;;7.28;2.72;;;0.30;1.00;;;;;;4922142;29;20325;-77
2021/03/20 05:56:13;;;;;;;4.60;2.55;;;0.40;1.00;;;;;;4913925;28;20301;-77
2021/03/20 05:58:55;;;;;;;7.30;4.00;;;0.40;1.00;;;;;;4932295;29;20226;-77
2021/03/20 06:01:34;;;;;;;3.85;2.10;;;0.50;1.00;;;;;;4917612;28;20257;-77
2021/03/20 06:04:28;;;;;;;3.10;2.08;;;0.60;1.00;;;;;;4920112;29;20297;-77
2021/03/20 06:07:45;;;;;;;3.88;2.20;;;0.60;1.00;;;;;;4910664;29;20304;-77
2021/03/20 06:10:31;;;;;;;9.00;3.15;;;0.70;1.00;;;;;;4879916;29;20232;-77
2021/03/20 06:13:12;;;;;;;3.45;2.00;;;0.80;1.00;;;;;;4916620;28;20273;-79
2021/03/20 06:15:52;;;;;;;8.35;5.22;;;0.80;1.00;;;;;;4907226;28;20374;-76
2021/03/20 06:18:43;;;;;;;4.57;2.25;;;0.90;1.00;;;;;;4919157;29;20955;-76
2021/03/20 06:21:16;;;;;;;8.18;2.58;;;0.90;1.00;;;;;;4875052;29;20238;-75
2021/03/20 06:24:17;;;;;;;3.03;2.25;;;1.00;1.00;;;;;;4922265;29;20269;-77
2021/03/20 06:26:46;;;;;;;3.92;2.45;;;1.00;1.00;;;;;;4909225;28;20952;-76
2021/03/20 06:29:17;;;;;;;8.30;3.08;;;1.00;1.00;;;;;;4919707;29;20218;-76
2021/03/20 06:31:45;;;;;;;5.85;2.75;;;1.10;1.00;;;;;;4906740;28;20240;-76
2021/03/20 06:34:15;;;;;;;3.95;2.40;;;1.20;1.00;;;;;;4915114;29;20282;-77
2021/03/20 06:36:43;;;;;;;6.03;2.20;;;1.30;1.00;;;;;;4907717;28;20230;-76
2021/03/20 06:39:18;;;;;;;5.10;2.70;;;1.30;1.00;;;;;;4918901;29;20222;-77
2021/03/20 06:41:51;;;;;;;3.42;1.98;;;1.40;1.00;;;;;;4905969;29;20292;-77
2021/03/20 06:44:24;;;;;;;4.38;2.45;;;1.50;1.00;;;;;;4916949;28;20697;-77
2021/03/20 06:46:52;;;;;;;8.60;3.47;;;1.60;1.00;;;;;;4894892;29;20823;-77
2021/03/20 06:49:30;;;;;;;5.93;3.33;;;1.70;1.00;;;;;;4920152;28;20254;-76
2021/03/20 06:51:59;;;;;;;7.65;3.00;;;1.70;1.00;;;;;;4919833;28;20772;-77
2021/03/20 06:54:27;;;;;;;4.55;3.25;;;1.80;1.00;;;;;;4930686;28;20246;-77
2021/03/20 06:56:55;;;;;;;3.95;2.28;;;1.90;1.00;;;;;;4918393;28;20737;-77
2021/03/20 06:59:24;;;;;;;6.28;2.67;;;2.00;1.00;;;;;;4928411;29;20226;-77
2021/03/20 07:01:55;;;;;;;4.82;2.80;;;2.00;1.00;;;;;;4915771;28;20297;-78
2021/03/20 07:04:55;;;;;;;1.77;1.67;;;2.10;1.00;;;;;;4913230;29;20333;-78
2021/03/20 07:07:44;;;;;;;6.07;2.85;;;2.10;1.00;;;;;;4919452;28;20234;-75
2021/03/20 07:10:21;;;;;;;6.28;3.20;;;2.20;1.00;;;;;;4927157;29;20222;-77
2021/03/20 07:15:40;;;;;;;4.80;2.20;;;2.20;1.00;;;;;;5146115;27;689469;-77
2021/03/20 07:18:17;;;;;;;8.35;3.75;;;2.20;1.00;;;;;;5106791;27;20219;-76
2021/03/20 07:20:44;;;;;;;3.85;2.70;;;2.30;1.00;;;;;;5112067;27;20293;-77
2021/03/20 07:23:12;;;;;;;4.07;2.30;;;2.40;1.00;;;;;;5111602;27;20227;-77
2021/03/20 07:25:43;;;;;;;7.35;4.05;;;2.40;1.00;;;;;;5111659;27;20226;-75
2021/03/20 07:28:14;;;;;;;5.85;2.05;;;2.50;1.00;;;;;;5095692;27;20219;-77
2021/03/20 07:30:49;;;;;;;5.35;2.65;;;2.60;1.00;;;;;;5108321;27;20215;-77
2021/03/20 07:33:29;;;;;;;5.20;2.95;;;2.70;1.00;;;;;;5101908;27;20246;-78
2021/03/20 07:35:57;;;;;;;4.03;2.45;;;2.90;1.00;;;;;;5117563;27;20697;-78
2021/03/20 07:38:27;;;;;;;3.10;2.55;;;2.90;1.00;;;;;;5107206;27;21782;-77
2021/03/20 07:41:08;;;;;;;4.43;2.72;;;2.80;1.00;;;;;;5124373;27;20208;-79
2021/03/20 07:43:34;;;;;;;4.10;2.63;;;2.90;1.00;;;;;;5113045;27;20793;-77
2021/03/20 07:46:13;;;;;;;5.55;3.10;;;2.90;1.00;;;;;;5130266;27;20219;-75
2021/03/20 07:48:41;;;;;;;4.85;2.63;;;3.00;1.00;;;;;;5114178;27;20286;-74
2021/03/20 07:51:13;;;;;;;6.18;3.47;;;3.30;1.00;;;;;;5126186;27;20254;-76
2021/03/20 07:53:43;;;;;;;34.75;23.85;;;3.40;1.00;;;;;;5127572;27;20861;-75
2021/03/20 07:56:33;;;;;;;5.30;3.13;;;3.60;1.00;;;;;;5127898;27;20248;-75
2021/03/20 07:59:15;;;;;;;5.65;3.00;;;3.60;1.00;;;;;;5123548;27;20392;-76
2021/03/20 08:01:48;;;;;;;4.80;2.58;;;3.70;1.00;;;;;;5127804;27;20866;-76
2021/03/20 08:04:15;;;;;;;6.93;2.05;;;3.70;1.00;;;;;;5115383;27;20277;-75
2021/03/20 08:06:45;;;;;;;4.10;2.50;;;3.70;1.00;;;;;;5120357;27;20284;-76
2021/03/20 08:09:22;;;;;;;6.72;2.60;;;3.70;1.00;;;;;;5126455;27;20231;-75
2021/03/20 08:11:50;;;;;;;9.70;3.90;;;3.70;1.00;;;;;;5114761;27;20223;-74
2021/03/20 08:14:22;;;;;;;2.90;2.40;;;3.90;1.00;;;;;;5120236;27;20246;-75
2021/03/20 08:16:50;;;;;;;7.85;2.10;;;4.10;1.00;;;;;;5087517;27;20232;-75
2021/03/20 08:19:19;;;;;;;5.75;2.95;;;4.30;1.00;;;;;;5115585;27;20234;-75
2021/03/20 08:22:23;;;;;;;5.20;3.05;;;4.60;1.00;;;;;;5107563;27;20216;-75
2021/03/20 08:25:02;;;;;;;4.38;1.80;;;4.80;1.00;;;;;;5117827;27;20250;-75
2021/03/20 08:27:42;;;;;;;3.50;2.15;;;5.00;1.00;;;;;;5118703;27;20269;-75
2021/03/20 08:30:26;;;;;;;5.22;1.77;;;5.10;1.00;;;;;;5111772;27;20265;-76
2021/03/20 08:33:32;;;;;;;4.30;1.77;;;5.20;1.00;;;;;;5102745;28;20278;-76
2021/03/20 08:36:07;;;;;;;5.75;2.65;;;5.30;1.00;;;;;;5105693;27;20219;-76
2021/03/20 08:38:52;;;;;;;5.53;2.15;;;5.60;1.00;;;;;;5115580;27;20231;-76
2021/03/20 08:41:29;;;;;;;3.08;1.50;;;5.90;1.00;;;;;;5096570;27;20610;-77
2021/03/20 08:44:22;;;;;;;5.00;2.00;;;6.10;1.00;;;;;;5107582;27;20221;-77
2021/03/20 08:47:02;;;;;;;2.90;1.67;;;6.10;1.00;;;;;;5082960;27;20298;-75
2021/03/20 08:49:44;;;;;;;2.67;1.38;;;6.00;1.00;;;;;;5099925;27;21062;-75
2021/03/20 08:52:22;;;;;;;3.45;1.67;;;6.00;1.00;;;;;;5073513;28;20208;-75
2021/03/20 08:55:06;;;;;;;13.93;4.75;;;6.10;1.00;;;;;;5107718;27;20290;-74
2021/03/20 08:57:42;;;;;;;1.98;1.42;;;6.30;1.00;;;;;;5084847;27;20389;-73
2021/03/20 09:00:16;;;;;;;2.90;1.90;;;6.40;1.00;;;;;;5101203;27;20223;-73
2021/03/20 09:02:44;;;;;;;2.00;1.48;;;6.50;1.00;;;;;;5088366;27;20224;-74
2021/03/20 09:05:27;;;;;;;3.60;2.00;;;6.60;1.00;;;;;;5093349;27;20787;-76
2021/03/20 09:07:57;;;;;;;4.38;1.83;;;6.90;1.00;;;;;;5089330;27;20307;-75
2021/03/20 09:10:27;;;;;;;3.80;2.53;;;6.90;1.00;;;;;;5097275;27;20246;-75
2021/03/20 09:13:02;;;;;;;3.60;2.10;;;7.00;1.00;;;;;;5085259;27;20352;-75
2021/03/20 09:15:30;;;;;;;4.45;1.75;;;7.20;1.00;;;;;;5104752;27;20230;-77
2021/03/20 09:18:00;;;;;;;1.48;1.38;;;7.40;1.00;;;;;;5086530;27;20318;-77
2021/03/20 09:20:38;;;;;;;2.10;1.63;;;7.70;1.00;;;;;;5101582;27;21489;-77
2021/03/20 09:23:06;;;;;;;2.38;1.63;;;7.80;1.00;;;;;;5093635;27;20216;-75
2021/03/20 09:25:36;;;;;;;3.30;2.55;;;7.90;1.00;;;;;;5104991;27;20228;-75
2021/03/20 09:28:08;;;;;;;3.58;2.00;;;8.30;1.00;;;;;;5086547;27;20221;-76
2021/03/20 09:30:40;;;;;;;4.15;2.50;;;8.50;1.00;;;;;;5103136;27;20230;-74
2021/03/20 09:33:14;;;;;;;3.45;2.05;;;8.70;1.00;;;;;;5086286;27;20330;-74
2021/03/20 09:35:43;;;;;;;5.53;2.03;;;8.80;1.00;;;;;;5086737;27;21038;-75
2021/03/20 09:38:11;;;;;;;2.03;1.67;;;9.10;1.00;;;;;;5068330;27;20275;-75
2021/03/20 09:40:50;;;;;;;3.47;2.17;;;9.50;1.00;;;;;;5077998;27;20254;-75
2021/03/20 09:43:23;;;;;;;7.18;2.53;;;9.60;1.00;;;;;;5065815;27;20359;-76
2021/03/20 09:46:25;;;;;;;5.65;2.30;;;9.60;1.00;;;;;;5079743;27;20224;-74
2021/03/20 09:48:53;;;;;;;2.95;2.25;;;9.70;1.00;;;;;;5070150;27;20701;-74
2021/03/20 09:51:58;;;;;;;4.57;3.10;;;9.50;1.00;;;;;;5080523;27;20295;-74
2021/03/20 09:54:40;;;;;;;3.05;2.17;;;9.40;1.00;;;;;;5052798;28;20247;-74
2021/03/20 09:57:40;;;;;;;4.40;2.10;;;9.40;1.00;;;;;;5062979;27;20235;-74
2021/03/20 10:00:10;;;;;;;2.92;1.50;;;9.40;1.00;;;;;;5077162;27;20250;-75
2021/03/20 10:02:52;;;;;;;3.30;1.90;;;9.20;1.00;;;;;;5087823;27;20304;-74
2021/03/20 10:05:28;;;;;;;2.20;1.50;;;8.80;1.00;;;;;;5085649;27;20228;-74
2021/03/20 10:08:00;;;;;;;5.43;1.98;;;8.80;1.00;;;;;;5103757;27;20321;-75
2021/03/20 10:10:42;;;;;;;6.10;1.60;;;8.60;1.00;;;;;;5088376;27;20200;-76
2021/03/20 10:13:15;;;;;;;2.28;1.50;;;8.50;1.00;;;;;;5078738;27;20248;-74
2021/03/20 10:15:55;;;;;;;2.00;1.50;;;8.30;1.00;;;;;;5081533;27;20360;-73
2021/03/20 10:18:35;;;;;;;6.22;1.92;;;8.40;1.00;;;;;;5096505;27;20841;-75
2021/03/20 10:21:20;;;;;;;3.33;1.70;;;8.70;1.00;;;;;;5071889;27;20223;-76
2021/03/20 10:23:53;;;;;;;2.20;1.67;;;8.80;1.00;;;;;;5088384;27;20421;-76
2021/03/20 10:26:29;;;;;;;2.00;1.50;;;8.90;1.00;;;;;;5078523;27;20250;-75
2021/03/20 10:28:58;;;;;;;4.70;2.40;;;8.80;1.00;;;;;;5091654;27;20226;-75
2021/03/20 10:31:26;;;;;;;3.05;1.60;;;8.60;1.00;;;;;;5078725;27;20323;-76
2021/03/20 10:34:05;;;;;;;2.50;1.60;;;8.10;1.00;;;;;;5103953;27;20873;-75
2021/03/20 10:36:37;;;;;;;3.58;1.55;;;7.80;1.00;;;;;;5099630;27;20442;-76
2021/03/20 10:39:20;;;;;;;6.10;1.67;;;7.70;1.00;;;;;;5091788;27;20239;-75
2021/03/20 10:41:47;;;;;;;4.13;2.13;;;7.80;1.00;;;;;;5085716;27;21163;-76
2021/03/20 10:44:15;;;;;;;3.28;1.63;;;8.00;1.00;;;;;;5094902;27;20318;-75
2021/03/20 10:46:43;;;;;;;2.95;1.70;;;8.50;1.00;;;;;;5080513;27;20220;-75
2021/03/20 10:49:16;;;;;;;1.98;1.48;;;9.30;1.00;;;;;;5071952;28;20228;-75
2021/03/20 10:51:45;;;;;;;3.60;1.73;;;9.90;1.00;;;;;;5084611;27;20734;-77
2021/03/20 10:54:19;;;;;;;2.08;1.80;;;10.20;1.00;;;;;;5092041;27;20235;-76
2021/03/20 10:56:47;;;;;;;4.40;2.63;;;10.30;1.00;;;;;;5079490;27;21109;-75
2021/03/20 10:59:21;;;;;;;6.57;5.22;;;10.00;1.00;;;;;;5096755;27;20230;-76
2021/03/20 11:01:48;;;;;;;2.88;1.90;;;9.90;1.00;;;;;;5088560;27;20315;-75
2021/03/20 11:04:26;;;;;;;3.15;2.13;;;10.00;1.00;;;;;;5102439;27;20302;-76
2021/03/20 11:06:54;;;;;;;2.70;1.80;;;10.20;1.00;;;;;;5090715;27;20235;-76
2021/03/20 11:09:24;;;;;;;4.47;1.70;;;10.50;1.00;;;;;;5096283;27;20251;-74
2021/03/20 11:11:59;;;;;;;3.42;2.10;;;11.10;1.00;;;;;;5078747;27;20233;-75
2021/03/20 11:14:26;;;;;;;3.90;2.05;;;11.30;1.00;;;;;;5090190;27;20281;-75
2021/03/20 11:16:57;;;;;;;5.35;1.80;;;11.60;1.00;;;;;;5091159;27;20385;-74
2021/03/20 11:19:29;;;;;;;4.03;1.70;;;12.20;1.00;;;;;;5097354;27;20343;-75
2021/03/20 11:22:01;;;;;;;2.70;1.63;;;13.40;1.00;;;;;;5094958;27;20529;-73
2021/03/20 11:24:34;;;;;;;2.43;1.50;;;14.40;1.00;;;;;;5091277;27;20857;-74
2021/03/20 11:27:17;;;;;;;3.13;2.70;;;15.30;1.00;;;;;;5085780;27;20473;-75
2021/03/20 11:29:45;;;;;;;4.90;1.33;;;15.90;1.00;;;;;;5091053;27;20442;-74
2021/03/20 11:32:22;;;;;;;3.60;1.70;;;16.50;1.00;;;;;;5089986;27;21272;-74
2021/03/20 11:34:56;;;;;;;2.57;2.00;;;16.80;1.00;;;;;;5084621;27;20483;-75
2021/03/20 11:37:25;;;;;;;5.30;1.93;;;17.10;1.00;;;;;;5089567;27;20434;-74
2021/03/20 11:39:57;;;;;;;2.10;1.80;;;17.80;1.00;;;;;;5078678;27;20417;-75
2021/03/20 11:42:26;;;;;;;2.90;2.00;;;17.80;1.00;;;;;;5092109;27;20888;-74
2021/03/20 11:44:53;;;;;;;2.83;2.20;;;16.20;1.00;;;;;;5076504;27;20495;-76
2021/03/20 11:47:22;;;;;;;3.47;1.63;;;16.30;1.00;;;;;;5094290;27;20463;-76
2021/03/20 11:49:52;;;;;;;2.90;1.90;;;16.00;1.00;;;;;;5076395;27;20450;-75
2021/03/20 11:52:20;;;;;;;5.40;4.50;;;15.80;1.00;;;;;;5089813;27;21480;-75
2021/03/20 11:54:58;;;;;;;3.53;2.07;;;15.30;1.00;;;;;;5077895;27;20469;-75
2021/03/20 11:57:32;;;;;;;2.60;2.07;;;14.60;1.00;;;;;;5088303;27;20546;-76
2021/03/20 11:59:58;;;;;;;2.00;1.80;;;14.30;1.00;;;;;;5083594;27;20446;-76
2021/03/20 12:02:40;;;;;;;4.20;2.37;;;13.90;1.00;;;;;;5094395;27;20445;-76
2021/03/20 12:05:10;;;;;;;5.10;2.00;;;14.70;1.00;;;;;;5083532;27;20453;-77
2021/03/20 12:07:37;;;;;;;2.10;1.50;;;15.60;1.00;;;;;;5103091;27;20469;-75
2021/03/20 12:10:14;;;;;;;3.20;2.57;;;15.50;1.00;;;;;;5086600;27;20446;-76
2021/03/20 12:12:46;;;;;;;3.30;1.40;;;16.30;1.00;;;;;;5085209;28;20447;-74
2021/03/20 12:15:21;;;;;;;3.70;2.23;;;17.00;1.00;;;;;;5086401;27;20585;-74
2021/03/20 12:17:48;;;;;;;3.13;2.00;;;16.90;1.00;;;;;;5088221;28;20489;-75
2021/03/20 12:20:40;;;;;;;2.13;1.70;;;17.00;1.00;;;;;;5082708;27;21005;-75
2021/03/20 12:23:15;;;;;;;2.20;2.00;;;17.50;1.00;;;;;;5094447;27;20455;-74
2021/03/20 12:25:49;;;;;;;3.83;2.30;;;17.80;1.00;;;;;;5076599;27;20577;-75
2021/03/20 12:28:37;;;;;;;2.87;2.67;;;17.40;1.00;;;;;;5094756;27;20455;-76
2021/03/20 12:31:28;;;;;;;3.20;1.60;;;16.60;1.00;;;;;;5080923;27;20978;-75
2021/03/20 12:33:56;;;;;;;3.40;1.90;;;16.30;1.00;;;;;;5093337;27;20447;-76
2021/03/20 12:36:31;;;;;;;4.20;2.30;;;15.50;1.00;;;;;;5070529;27;20427;-76
2021/03/20 12:38:58;;;;;;;3.97;1.90;;;14.60;1.00;;;;;;5113838;27;20507;-75
2021/03/20 12:41:27;;;;;;;2.10;1.90;;;13.50;1.00;;;;;;5112904;27;20440;-76
2021/03/20 12:44:10;;;;;;;2.73;1.90;;;13.30;1.00;;;;;;5108362;27;20488;-76
2021/03/20 12:46:40;;;;;;;3.33;1.97;;;13.00;1.00;;;;;;5082437;27;20457;-76
2021/03/20 12:49:06;;;;;;;2.57;2.07;;;13.40;1.00;;;;;;5090533;27;20442;-76
2021/03/20 12:51:33;;;;;;;3.40;2.40;;;13.70;1.00;;;;;;5085010;27;20455;-75
2021/03/20 12:54:00;;;;;;;2.90;2.00;;;13.90;1.00;;;;;;5101180;27;20438;-75
2021/03/20 12:56:27;;;;;;;2.67;2.13;;;13.70;1.00;;;;;;5083433;27;21305;-75
2021/03/20 12:58:53;;;;;;;9.73;6.53;;;13.20;1.00;;;;;;5094527;27;21565;-76
2021/03/20 13:01:19;;;;;;;12.53;9.70;;;12.90;1.00;;;;;;5077488;27;21233;-75
2021/03/20 13:03:46;;;;;;;6.40;4.00;;;12.60;1.00;;;;;;5097649;27;20449;-76
2021/03/20 13:06:12;;;;;;;6.57;2.70;;;12.50;1.00;;;;;;5083159;27;20553;-77
2021/03/20 13:08:38;;;;;;;2.70;2.27;;;12.50;1.00;;;;;;5098739;27;20553;-74
2021/03/20 13:11:06;;;;;;;3.07;2.40;;;12.10;1.00;;;;;;5101608;27;20438;-76
2021/03/20 13:13:34;;;;;;;2.20;1.70;;;11.80;1.00;;;;;;5081638;27;20453;-76
2021/03/20 13:16:00;;;;;;;3.97;1.98;;;11.80;1.00;;;;;;5094055;27;20470;-76
2021/03/20 13:18:26;;;;;;;2.58;2.17;;;11.50;1.00;;;;;;5083106;27;20223;-77
2021/03/20 13:20:53;;;;;;;2.40;1.80;;;10.80;1.00;;;;;;5093430;27;20227;-80
2021/03/20 13:23:20;;;;;;;3.55;2.05;;;10.60;1.00;;;;;;5081034;27;20235;-77
2021/03/20 13:25:47;;;;;;;3.63;2.08;;;10.50;1.00;;;;;;5089021;27;20220;-77
2021/03/20 13:28:14;;;;;;;2.80;2.30;;;10.60;1.00;;;;;;5079545;27;20919;-77
2021/03/20 13:30:46;;;;;;;3.17;2.03;;;10.50;1.00;;;;;;5090795;27;20275;-75
2021/03/20 13:33:14;;;;;;;2.33;1.45;;;10.40;1.00;;;;;;5081693;27;20208;-75